Time,TemperatureF,DewpointF,PressureIn,WindDirection,WindDirectionDegrees,WindSpeedMPH,WindSpeedGustMPH,Humidity,HourlyPrecipIn,Conditions,Clouds,dailyrainin,SolarRadiationWatts/m^2,SoftwareType,DateUTC
2013-07-01 00:00:00,64.0,59.0,-100.00,NE,45,1.0,-999.0,83,-99.99,,,-99.99,0.000000,,2013-07-01 04:00:00,
2013-07-01 00:32:00,64.0,59.0,-100.00,NE,45,1.0,-999.0,83,-99.99,,,-99.99,0.000000,,2013-07-01 04:32:00,
2013-07-01 00:43:00,64.0,59.0,-100.00,NE,45,1.0,-999.0,83,-99.99,,,-99.99,0.000000,,2013-07-01 04:43:00,
2013-07-01 00:53:00,64.0,59.0,-100.00,NE,45,1.0,-999.0,83,-99.99,,,-99.99,0.000000,,2013-07-01 04:53:00,
2013-07-01 01:00:00,64.0,52.0,-100.00,ENE,67,2.0,-999.0,65,-99.99,,,-99.99,0.000000,,2013-07-01 05:00:00,
2013-07-01 01:42:00,64.0,52.0,-100.00,ENE,67,2.0,-999.0,65,-99.99,,,-99.99,0.000000,,2013-07-01 05:42:00,
2013-07-01 01:52:00,64.0,52.0,-100.00,ENE,67,2.0,-999.0,65,-99.99,,,-99.99,0.000000,,2013-07-01 05:52:00,
2013-07-01 02:00:00,62.0,45.0,-100.00,NE,45,2.0,-999.0,53,-99.99,,,-99.99,0.000000,,2013-07-01 06:00:00,
2013-07-01 02:43:00,62.0,45.0,-100.00,NE,45,2.0,-999.0,53,-99.99,,,-99.99,0.000000,,2013-07-01 06:43:00,
2013-07-01 02:53:00,62.0,45.0,-100.00,NE,45,2.0,-999.0,53,-99.99,,,-99.99,0.000000,,2013-07-01 06:53:00,
2013-07-01 03:00:00,59.0,43.0,-100.00,NNE,22,2.0,-999.0,55,-99.99,,,-99.99,0.000000,,2013-07-01 07:00:00,
2013-07-01 03:43:00,59.0,43.0,-100.00,NNE,22,2.0,-999.0,55,-99.99,,,-99.99,0.000000,,2013-07-01 07:43:00,
2013-07-01 03:53:00,59.0,43.0,-100.00,NNE,22,2.0,-999.0,55,-99.99,,,-99.99,0.000000,,2013-07-01 07:53:00,
2013-07-01 04:00:00,58.0,41.0,-100.00,NE,45,2.0,-999.0,53,-99.99,,,-99.99,0.000000,,2013-07-01 08:00:00,
2013-07-01 04:43:00,58.0,41.0,-100.00,NE,45,2.0,-999.0,53,-99.99,,,-99.99,0.000000,,2013-07-01 08:43:00,
2013-07-01 04:52:00,58.0,41.0,-100.00,NE,45,2.0,-999.0,53,-99.99,,,-99.99,0.000000,,2013-07-01 08:52:00,
2013-07-01 05:00:00,56.0,43.0,-100.00,NNE,22,1.0,-999.0,62,-99.99,,,-99.99,0.000000,,2013-07-01 09:00:00,
2013-07-01 05:43:00,56.0,43.0,-100.00,NNE,22,1.0,-999.0,62,-99.99,,,-99.99,0.000000,,2013-07-01 09:43:00,
2013-07-01 05:53:00,56.0,43.0,-100.00,NNE,22,1.0,-999.0,62,-99.99,,,-99.99,0.000000,,2013-07-01 09:53:00,
2013-07-01 06:00:00,55.0,44.0,-100.00,NNE,22,2.0,-999.0,65,-99.99,,,-99.99,0.000000,,2013-07-01 10:00:00,
2013-07-01 06:43:00,55.0,44.0,-100.00,NNE,22,2.0,-999.0,65,-99.99,,,-99.99,0.000000,,2013-07-01 10:43:00,
2013-07-01 06:52:00,55.0,44.0,-100.00,NNE,22,2.0,-999.0,65,-99.99,,,-99.99,0.000000,,2013-07-01 10:52:00,
2013-07-01 07:00:00,55.0,45.0,-100.00,NE,45,3.0,-999.0,69,-99.99,,,-99.99,5.800000,,2013-07-01 11:00:00,
2013-07-01 07:43:00,55.0,45.0,-100.00,NE,45,3.0,-999.0,69,-99.99,,,-99.99,5.800000,,2013-07-01 11:43:00,
2013-07-01 07:52:00,55.0,45.0,-100.00,NE,45,3.0,-999.0,69,-99.99,,,-99.99,5.800000,,2013-07-01 11:52:00,
2013-07-01 08:00:00,56.0,46.0,-100.00,ENE,67,3.0,-999.0,70,-99.99,,,-99.99,44.080002,,2013-07-01 12:00:00,
2013-07-01 08:33:00,56.0,46.0,-100.00,ENE,67,3.0,-999.0,70,-99.99,,,-99.99,44.080002,,2013-07-01 12:33:00,
2013-07-01 08:43:00,56.0,46.0,-100.00,ENE,67,3.0,-999.0,70,-99.99,,,-99.99,44.080002,,2013-07-01 12:43:00,
2013-07-01 08:53:00,56.0,46.0,-100.00,ENE,67,3.0,-999.0,70,-99.99,,,-99.99,44.080002,,2013-07-01 12:53:00,
2013-07-01 09:00:00,59.0,48.0,-100.00,NE,45,2.0,-999.0,68,-99.99,,,-99.99,135.720001,,2013-07-01 13:00:00,
2013-07-01 09:43:00,59.0,48.0,-100.00,NE,45,2.0,-999.0,68,-99.99,,,-99.99,135.720001,,2013-07-01 13:43:00,
2013-07-01 09:53:00,59.0,48.0,-100.00,NE,45,2.0,-999.0,68,-99.99,,,-99.99,135.720001,,2013-07-01 13:53:00,
2013-07-01 10:00:00,62.0,51.0,-100.00,ENE,67,3.0,-999.0,65,-99.99,,,-99.99,245.919998,,2013-07-01 14:00:00,
2013-07-01 10:43:00,62.0,51.0,-100.00,ENE,67,3.0,-999.0,65,-99.99,,,-99.99,245.919998,,2013-07-01 14:43:00,
2013-07-01 10:53:00,62.0,51.0,-100.00,ENE,67,3.0,-999.0,65,-99.99,,,-99.99,245.919998,,2013-07-01 14:53:00,
2013-07-01 11:00:00,66.0,52.0,-100.00,NE,45,4.0,-999.0,62,-99.99,,,-99.99,328.279999,,2013-07-01 15:00:00,
2013-07-01 11:43:00,66.0,52.0,-100.00,NE,45,4.0,-999.0,62,-99.99,,,-99.99,328.279999,,2013-07-01 15:43:00,
2013-07-01 11:53:00,66.0,52.0,-100.00,NE,45,4.0,-999.0,62,-99.99,,,-99.99,328.279999,,2013-07-01 15:53:00,
2013-07-01 12:00:00,67.0,53.0,-100.00,ENE,67,4.0,-999.0,60,-99.99,,,-99.99,360.760010,,2013-07-01 16:00:00,
2013-07-01 12:44:00,67.0,53.0,-100.00,ENE,67,4.0,-999.0,60,-99.99,,,-99.99,360.760010,,2013-07-01 16:44:00,
2013-07-01 12:53:00,67.0,53.0,-100.00,ENE,67,4.0,-999.0,60,-99.99,,,-99.99,360.760010,,2013-07-01 16:53:00,
2013-07-01 13:00:00,68.0,54.0,-100.00,NE,45,4.0,-999.0,59,-99.99,,,-99.99,353.799988,,2013-07-01 17:00:00,
2013-07-01 13:43:00,68.0,54.0,-100.00,NE,45,4.0,-999.0,59,-99.99,,,-99.99,353.799988,,2013-07-01 17:43:00,
2013-07-01 13:53:00,68.0,54.0,-100.00,NE,45,4.0,-999.0,59,-99.99,,,-99.99,353.799988,,2013-07-01 17:53:00,
2013-07-01 14:00:00,69.0,54.0,-100.00,NE,45,4.0,-999.0,58,-99.99,,,-99.99,372.359985,,2013-07-01 18:00:00,
2013-07-01 14:53:00,69.0,54.0,-100.00,NE,45,4.0,-999.0,58,-99.99,,,-99.99,372.359985,,2013-07-01 18:53:00,
2013-07-01 15:00:00,72.0,54.0,-100.00,East,90,7.0,-999.0,52,-99.99,,,-99.99,600.880005,,2013-07-01 19:00:00,
2013-07-01 15:44:00,72.0,54.0,-100.00,East,90,7.0,-999.0,52,-99.99,,,-99.99,600.880005,,2013-07-01 19:44:00,
2013-07-01 15:53:00,72.0,54.0,-100.00,East,90,7.0,-999.0,52,-99.99,,,-99.99,600.880005,,2013-07-01 19:53:00,
2013-07-01 16:00:00,74.0,54.0,-100.00,ENE,67,7.0,-999.0,50,-99.99,,,-99.99,757.479980,,2013-07-01 20:00:00,
2013-07-01 16:43:00,74.0,54.0,-100.00,ENE,67,7.0,-999.0,50,-99.99,,,-99.99,757.479980,,2013-07-01 20:43:00,
2013-07-01 16:52:00,74.0,54.0,-100.00,ENE,67,7.0,-999.0,50,-99.99,,,-99.99,757.479980,,2013-07-01 20:52:00,
2013-07-01 17:00:00,74.0,52.0,-100.00,ENE,67,7.0,-999.0,45,-99.99,,,-99.99,542.880005,,2013-07-01 21:00:00,
2013-07-01 17:44:00,74.0,52.0,-100.00,ENE,67,7.0,-999.0,45,-99.99,,,-99.99,542.880005,,2013-07-01 21:44:00,
2013-07-01 17:53:00,74.0,52.0,-100.00,ENE,67,7.0,-999.0,45,-99.99,,,-99.99,542.880005,,2013-07-01 21:53:00,
2013-07-01 18:00:00,72.0,51.0,-100.00,ENE,67,6.0,-999.0,46,-99.99,,,-99.99,308.559998,,2013-07-01 22:00:00,
2013-07-01 18:43:00,72.0,51.0,-100.00,ENE,67,6.0,-999.0,46,-99.99,,,-99.99,308.559998,,2013-07-01 22:43:00,
2013-07-01 18:53:00,72.0,51.0,-100.00,ENE,67,6.0,-999.0,46,-99.99,,,-99.99,308.559998,,2013-07-01 22:53:00,
2013-07-01 19:00:00,72.0,51.0,-100.00,ENE,67,5.0,-999.0,47,-99.99,,,-99.99,208.800003,,2013-07-01 23:00:00,
2013-07-01 19:44:00,72.0,51.0,-100.00,ENE,67,5.0,-999.0,47,-99.99,,,-99.99,208.800003,,2013-07-01 23:44:00,
2013-07-01 19:53:00,72.0,51.0,-100.00,ENE,67,5.0,-999.0,47,-99.99,,,-99.99,208.800003,,2013-07-01 23:53:00,
2013-07-01 20:00:00,72.0,50.0,-100.00,NE,45,5.0,-999.0,45,-99.99,,,-99.99,223.880005,,2013-07-02 00:00:00,
2013-07-01 20:43:00,72.0,50.0,-100.00,NE,45,5.0,-999.0,45,-99.99,,,-99.99,223.880005,,2013-07-02 00:43:00,
2013-07-01 20:53:00,72.0,50.0,-100.00,NE,45,5.0,-999.0,45,-99.99,,,-99.99,223.880005,,2013-07-02 00:53:00,
2013-07-01 21:00:00,70.0,52.0,-100.00,NE,45,4.0,-999.0,51,-99.99,,,-99.99,76.559998,,2013-07-02 01:00:00,
2013-07-01 21:43:00,70.0,52.0,-100.00,NE,45,4.0,-999.0,51,-99.99,,,-99.99,76.559998,,2013-07-02 01:43:00,
2013-07-01 21:53:00,70.0,52.0,-100.00,NE,45,4.0,-999.0,51,-99.99,,,-99.99,76.559998,,2013-07-02 01:53:00,
2013-07-01 22:00:00,67.0,50.0,-100.00,ENE,67,4.0,-999.0,53,-99.99,,,-99.99,6.960000,,2013-07-02 02:00:00,
2013-07-01 22:43:00,67.0,50.0,-100.00,ENE,67,4.0,-999.0,53,-99.99,,,-99.99,6.960000,,2013-07-02 02:43:00,
2013-07-01 22:53:00,67.0,50.0,-100.00,ENE,67,4.0,-999.0,53,-99.99,,,-99.99,6.960000,,2013-07-02 02:53:00,
2013-07-01 23:00:00,66.0,49.0,-100.00,ENE,67,3.0,-999.0,55,-99.99,,,-99.99,0.000000,,2013-07-02 03:00:00,
2013-07-01 23:53:00,66.0,49.0,-100.00,ENE,67,3.0,-999.0,55,-99.99,,,-99.99,0.000000,,2013-07-02 03:53:00,